createdAt,value
2018-07-12T00:00:09.567Z,72.60
2018-07-12T00:02:37.574Z,73.10
2018-07-12T00:05:05.637Z,72.60
2018-07-12T00:07:33.658Z,72.80
2018-07-12T00:12:29.826Z,72.80
2018-07-12T00:14:57.844Z,72.90
2018-07-12T00:17:25.862Z,72.60
2018-07-12T00:19:53.898Z,72.90
2018-07-12T00:22:21.900Z,72.00
2018-07-12T00:24:49.900Z,71.70
2018-07-12T00:27:17.992Z,71.50
2018-07-12T00:29:46.017Z,72.00
2018-07-12T00:32:14.080Z,72.10
2018-07-12T00:34:42.094Z,72.00
2018-07-12T00:37:10.123Z,72.20
2018-07-12T00:39:38.148Z,72.00
2018-07-12T00:42:06.182Z,72.00
2018-07-12T00:44:34.236Z,71.90
2018-07-12T00:47:02.240Z,72.20
2018-07-12T00:49:30.299Z,72.30
2018-07-12T00:51:58.344Z,73.10
2018-07-12T00:54:26.380Z,73.70
2018-07-12T00:56:54.390Z,73.40
2018-07-12T00:59:22.430Z,73.20
2018-07-12T01:04:18.609Z,72.50
2018-07-12T01:06:46.610Z,72.70
2018-07-12T01:09:14.652Z,72.60
2018-07-12T01:11:42.647Z,73.00
2018-07-12T01:14:10.701Z,73.10
2018-07-12T01:16:38.733Z,73.20
2018-07-12T01:19:06.772Z,72.90
2018-07-12T01:21:34.822Z,72.70
2018-07-12T01:24:02.882Z,72.90
2018-07-12T01:26:30.949Z,73.00
2018-07-12T01:28:58.985Z,73.00
2018-07-12T01:31:27.045Z,73.00
2018-07-12T01:33:55.641Z,72.90
2018-07-12T01:36:23.762Z,72.50
2018-07-12T01:38:51.812Z,72.50
2018-07-12T01:41:19.831Z,72.60
2018-07-12T01:43:47.856Z,72.50
2018-07-12T01:46:15.871Z,72.70
2018-07-12T01:48:43.897Z,72.40
2018-07-12T01:51:11.950Z,72.30
2018-07-12T01:53:40.006Z,72.30
2018-07-12T01:56:08.047Z,72.00
2018-07-12T01:58:36.097Z,72.00
2018-07-12T02:01:04.102Z,72.00
2018-07-12T02:03:32.124Z,72.70
2018-07-12T02:06:00.151Z,72.60
2018-07-12T02:08:28.146Z,72.60
2018-07-12T02:10:56.183Z,72.60
2018-07-12T02:13:24.188Z,72.80
2018-07-12T02:15:52.209Z,73.60
2018-07-12T02:18:20.215Z,72.60
2018-07-12T02:20:48.239Z,72.70
2018-07-12T02:23:16.257Z,73.10
2018-07-12T02:25:44.309Z,73.00
2018-07-12T02:28:12.339Z,72.60
2018-07-12T02:30:40.370Z,72.30
2018-07-12T02:33:08.399Z,72.80
2018-07-12T02:35:36.479Z,73.20
2018-07-12T02:38:04.510Z,73.50
2018-07-12T02:40:32.517Z,73.30
2018-07-12T02:43:00.567Z,73.50
2018-07-12T02:45:28.577Z,73.20
2018-07-12T02:47:56.619Z,73.00
2018-07-12T02:50:24.630Z,73.80
2018-07-12T02:52:52.671Z,73.10
2018-07-12T02:55:20.681Z,72.90
2018-07-12T02:57:48.693Z,73.10
2018-07-12T03:00:16.778Z,73.00
2018-07-12T03:02:44.782Z,72.90
2018-07-12T03:05:12.815Z,72.80
2018-07-12T03:07:40.878Z,72.50
2018-07-12T03:10:08.875Z,72.30
2018-07-12T03:12:36.885Z,72.20
2018-07-12T03:15:04.919Z,72.20
2018-07-12T03:17:32.969Z,72.10
2018-07-12T03:20:00.966Z,72.50
2018-07-12T03:22:28.991Z,72.60
2018-07-12T03:24:57.010Z,72.90
2018-07-12T03:27:25.038Z,72.50
2018-07-12T03:29:53.057Z,72.30
2018-07-12T03:32:21.093Z,72.60
2018-07-12T03:34:49.106Z,72.90
2018-07-12T03:37:17.136Z,73.20
2018-07-12T03:39:45.192Z,72.80
2018-07-12T03:42:13.225Z,72.90
2018-07-12T03:44:41.249Z,72.90
2018-07-12T03:47:09.317Z,72.60
2018-07-12T03:49:37.386Z,73.00
2018-07-12T03:52:05.434Z,72.80
2018-07-12T03:54:33.454Z,72.60
2018-07-12T03:57:01.477Z,72.30
2018-07-12T03:59:29.504Z,72.20
2018-07-12T04:01:57.535Z,72.30
2018-07-12T04:04:25.590Z,72.40
2018-07-12T04:06:53.611Z,72.60
2018-07-12T04:09:21.651Z,72.80
2018-07-12T04:11:49.674Z,73.20
2018-07-12T04:14:17.793Z,73.00
2018-07-12T04:16:45.845Z,73.00
2018-07-12T04:19:13.863Z,72.90
2018-07-12T04:21:41.896Z,72.80
2018-07-12T04:24:09.921Z,72.50
2018-07-12T04:26:38.023Z,72.50
2018-07-12T04:29:06.045Z,72.70
2018-07-12T04:31:34.069Z,72.90
2018-07-12T04:34:02.090Z,72.50
2018-07-12T04:36:30.109Z,72.10
2018-07-12T04:38:58.141Z,72.00
2018-07-12T04:41:26.169Z,71.60
2018-07-12T04:43:54.197Z,71.80
2018-07-12T04:46:22.257Z,72.30
2018-07-12T04:48:50.314Z,72.30
2018-07-12T04:51:18.407Z,72.10
2018-07-12T04:53:46.490Z,72.20
2018-07-12T04:56:14.547Z,72.40
2018-07-12T04:58:42.589Z,72.40
2018-07-12T05:01:10.615Z,72.50
2018-07-12T05:03:38.646Z,72.70
2018-07-12T05:06:07.246Z,73.00
2018-07-12T05:08:35.284Z,73.80
2018-07-12T05:11:03.335Z,73.20
2018-07-12T05:13:31.370Z,74.10
2018-07-12T05:15:59.418Z,74.10
2018-07-12T05:18:27.421Z,74.10
2018-07-12T05:20:55.512Z,74.10
2018-07-12T05:23:23.536Z,74.00
2018-07-12T05:25:51.621Z,74.30
2018-07-12T05:28:19.651Z,74.60
2018-07-12T05:30:47.909Z,74.60
2018-07-12T05:33:15.955Z,76.30
2018-07-12T05:35:45.181Z,74.30
2018-07-12T05:38:14.324Z,74.40
2018-07-12T05:40:43.453Z,74.40
2018-07-12T05:43:12.631Z,73.50
2018-07-12T05:45:41.773Z,74.40
2018-07-12T05:48:10.953Z,75.00
2018-07-12T05:50:44.341Z,73.50
2018-07-12T05:53:13.538Z,73.70
2018-07-12T05:55:43.021Z,73.30
2018-07-12T05:58:12.200Z,73.60
2018-07-12T06:00:42.117Z,73.90
2018-07-12T06:03:11.610Z,74.00
2018-07-12T06:08:09.517Z,75.00
2018-07-12T06:10:38.748Z,75.70
2018-07-12T06:13:07.960Z,76.00
2018-07-12T06:15:37.133Z,76.90
2018-07-12T06:18:06.388Z,78.60
2018-07-12T06:23:04.490Z,80.70
2018-07-12T06:25:33.810Z,80.70
2018-07-12T06:28:03.106Z,80.90
2018-07-12T06:30:32.223Z,81.10
2018-07-12T06:33:01.381Z,81.80
2018-07-12T06:35:30.541Z,81.40
2018-07-12T06:37:59.706Z,80.70
2018-07-12T06:40:28.877Z,80.10
2018-07-12T06:42:58.004Z,79.50
2018-07-12T06:45:27.295Z,79.20
2018-07-12T06:47:56.562Z,79.00
2018-07-12T06:50:25.734Z,78.60
2018-07-12T06:52:55.040Z,78.30
2018-07-12T06:55:24.133Z,78.60
2018-07-12T06:57:53.254Z,78.80
2018-07-12T07:00:22.393Z,78.70
2018-07-12T07:02:51.537Z,78.70
2018-07-12T07:07:49.576Z,80.20
2018-07-12T07:10:18.794Z,82.60
2018-07-12T07:12:47.905Z,84.40
2018-07-12T07:15:17.077Z,85.50
2018-07-12T07:17:46.247Z,86.00
2018-07-12T07:20:15.648Z,86.30
2018-07-12T07:22:44.780Z,86.70
2018-07-12T07:25:13.958Z,87.30
2018-07-12T07:27:43.128Z,87.80
2018-07-12T07:30:12.418Z,88.70
2018-07-12T07:32:41.535Z,89.10
2018-07-12T07:35:11.035Z,89.10
2018-07-12T07:37:40.245Z,89.30
2018-07-12T07:40:09.631Z,89.60
2018-07-12T07:42:38.775Z,89.70
2018-07-12T07:45:08.035Z,89.70
2018-07-12T07:47:37.172Z,90.10
2018-07-12T07:50:06.994Z,90.10
2018-07-12T07:52:36.233Z,90.10
2018-07-12T07:55:05.523Z,90.00
2018-07-12T07:57:34.689Z,89.80
2018-07-12T08:00:03.968Z,90.20
2018-07-12T08:02:36.045Z,90.50
2018-07-12T08:05:05.278Z,90.50
2018-07-12T08:07:34.478Z,90.40
2018-07-12T08:12:32.489Z,89.80
2018-07-12T08:15:01.666Z,89.40
2018-07-12T08:17:30.813Z,88.60
2018-07-12T08:19:59.966Z,86.70
2018-07-12T08:22:29.240Z,85.90
2018-07-12T08:24:59.067Z,86.00
2018-07-12T08:27:28.747Z,84.90
2018-07-12T08:29:58.361Z,84.20
2018-07-12T08:32:27.501Z,80.40
2018-07-12T08:34:56.651Z,77.30
2018-07-12T08:37:25.887Z,73.70
2018-07-12T08:39:55.145Z,69.20
2018-07-12T08:42:24.346Z,66.60
2018-07-12T08:44:53.509Z,65.20
2018-07-12T08:47:22.657Z,66.30
2018-07-12T08:49:53.802Z,64.20
2018-07-12T08:52:23.013Z,62.10
2018-07-12T08:54:52.151Z,61.50
2018-07-12T08:57:21.359Z,61.70
2018-07-12T08:59:50.544Z,64.40
2018-07-12T09:02:19.873Z,64.60
2018-07-12T09:04:49.205Z,66.10
2018-07-12T09:07:18.515Z,67.60
2018-07-12T09:09:47.700Z,69.70
2018-07-12T09:12:17.013Z,71.10
2018-07-12T09:14:46.253Z,73.00
2018-07-12T09:17:15.622Z,73.40
2018-07-12T09:19:44.801Z,73.50
2018-07-12T09:22:13.968Z,73.40
2018-07-12T09:24:43.092Z,73.10
2018-07-12T09:27:12.239Z,73.90
2018-07-12T09:29:41.494Z,73.70
2018-07-12T09:32:10.833Z,73.50
2018-07-12T09:34:40.064Z,72.50
2018-07-12T09:37:09.361Z,72.70
2018-07-12T09:39:38.621Z,73.20
2018-07-12T09:42:07.840Z,73.40
2018-07-12T09:44:37.105Z,73.60
2018-07-12T09:47:06.687Z,72.80
2018-07-12T09:49:35.822Z,71.50
2018-07-12T09:52:09.261Z,71.70
2018-07-12T09:54:38.382Z,71.80
2018-07-12T09:57:18.738Z,71.40
2018-07-12T09:59:47.953Z,71.90
2018-07-12T10:02:22.366Z,72.00
2018-07-12T10:04:51.562Z,71.40
2018-07-12T10:07:26.113Z,67.50
2018-07-12T10:09:56.196Z,68.00
2018-07-12T10:12:32.886Z,65.90
2018-07-12T10:15:07.218Z,65.80
2018-07-12T10:17:37.307Z,63.40
2018-07-12T10:20:06.868Z,63.70
2018-07-12T10:22:35.990Z,64.10
2018-07-12T10:25:05.666Z,64.80
2018-07-12T10:27:34.813Z,65.30
2018-07-12T10:30:04.663Z,65.40
2018-07-12T10:32:34.033Z,66.20
2018-07-12T10:35:03.178Z,66.20
2018-07-12T10:37:32.386Z,66.00
2018-07-12T10:40:01.606Z,65.70
2018-07-12T10:42:30.807Z,65.50
2018-07-12T10:45:00.017Z,65.20
2018-07-12T10:47:29.258Z,65.50
2018-07-12T10:49:58.394Z,66.30
2018-07-12T10:52:27.594Z,67.00
2018-07-12T10:54:56.773Z,67.20
2018-07-12T10:57:25.952Z,66.90
2018-07-12T10:59:55.113Z,67.20
2018-07-12T11:04:53.029Z,68.10
2018-07-12T11:07:22.252Z,67.40
2018-07-12T11:09:51.526Z,67.10
2018-07-12T11:12:20.621Z,67.10
2018-07-12T11:14:49.773Z,65.90
2018-07-12T11:17:18.969Z,65.80
2018-07-12T11:19:48.103Z,65.40
2018-07-12T11:22:17.614Z,65.40
2018-07-12T11:24:46.798Z,65.30
2018-07-12T11:27:15.917Z,66.00
2018-07-12T11:29:54.462Z,66.70
2018-07-12T11:32:23.658Z,67.00
2018-07-12T11:34:52.850Z,67.60
2018-07-12T11:37:24.324Z,67.80
2018-07-12T11:39:53.501Z,68.40
2018-07-12T11:42:22.756Z,69.00
2018-07-12T11:44:51.921Z,69.50
2018-07-12T11:47:21.194Z,69.70
2018-07-12T11:49:50.343Z,70.00
2018-07-12T11:52:19.600Z,70.10
2018-07-12T11:57:17.480Z,70.00
2018-07-12T11:59:46.642Z,69.70
2018-07-12T12:02:15.784Z,69.50
2018-07-12T12:04:44.879Z,69.50
2018-07-12T12:07:14.139Z,68.90
2018-07-12T12:09:43.270Z,69.40
2018-07-12T12:12:12.395Z,69.80
2018-07-12T12:14:41.566Z,68.70
2018-07-12T12:17:10.758Z,68.60
2018-07-12T12:19:40.075Z,68.00
2018-07-12T12:22:09.251Z,67.50
2018-07-12T12:24:38.427Z,67.20
2018-07-12T12:27:07.558Z,66.60
2018-07-12T12:29:36.738Z,65.80
2018-07-12T12:32:05.945Z,64.80
2018-07-12T12:34:35.182Z,64.60
2018-07-12T12:37:04.384Z,64.50
2018-07-12T12:39:33.706Z,64.20
2018-07-12T12:42:02.931Z,64.60
2018-07-12T12:44:32.194Z,65.00
2018-07-12T12:47:01.326Z,64.80
2018-07-12T12:49:30.683Z,64.50
2018-07-12T12:51:59.902Z,65.00
2018-07-12T12:54:29.015Z,64.40
2018-07-12T12:56:58.144Z,63.60
2018-07-12T12:59:27.376Z,63.20
2018-07-12T13:04:25.318Z,62.30
2018-07-12T13:06:54.473Z,62.00
2018-07-12T13:09:23.701Z,61.70
2018-07-12T13:11:52.881Z,61.90
2018-07-12T13:14:22.030Z,62.00
2018-07-12T13:16:51.141Z,63.00
2018-07-12T13:19:20.278Z,63.70
2018-07-12T13:21:49.529Z,63.20
2018-07-12T13:24:18.664Z,60.80
2018-07-12T13:26:47.820Z,60.60
2018-07-12T13:29:16.995Z,59.90
2018-07-12T13:31:46.192Z,60.00
2018-07-12T13:34:15.314Z,61.60
2018-07-12T13:36:44.440Z,61.50
2018-07-12T13:39:13.582Z,61.80
2018-07-12T13:41:42.702Z,62.90
2018-07-12T13:44:26.244Z,63.40
2018-07-12T13:46:55.863Z,63.70
2018-07-12T13:49:24.999Z,63.70
2018-07-12T13:51:54.182Z,63.80
2018-07-12T13:54:23.355Z,63.90
2018-07-12T13:56:52.521Z,64.50
2018-07-12T13:59:21.651Z,63.90
2018-07-12T14:04:19.480Z,62.50
2018-07-12T14:06:48.620Z,62.70
2018-07-12T14:11:46.697Z,62.60
2018-07-12T14:14:15.818Z,63.30
2018-07-12T14:16:44.989Z,63.70
2018-07-12T14:19:14.324Z,64.00
2018-07-12T14:21:43.477Z,63.50
2018-07-12T14:24:12.681Z,63.60
2018-07-12T14:26:41.891Z,63.40
2018-07-12T14:29:11.073Z,63.50
2018-07-12T14:31:40.283Z,63.60
2018-07-12T14:34:09.550Z,64.20
2018-07-12T14:36:38.805Z,63.50
2018-07-12T14:39:08.915Z,63.80
2018-07-12T14:41:38.116Z,63.50
2018-07-12T14:44:07.421Z,63.00
2018-07-12T14:46:36.603Z,62.70
2018-07-12T14:49:05.797Z,62.40
2018-07-12T14:51:35.117Z,62.00
2018-07-12T14:54:04.379Z,61.50
2018-07-12T14:56:33.540Z,61.40
2018-07-12T14:59:02.719Z,61.80
2018-07-12T15:01:33.109Z,61.90
2018-07-12T15:04:02.229Z,62.70
2018-07-12T15:06:31.723Z,62.10
2018-07-12T15:09:00.945Z,61.90
2018-07-12T15:11:30.093Z,61.90
2018-07-12T15:13:59.275Z,62.00
2018-07-12T15:16:28.434Z,62.60
2018-07-12T15:18:57.683Z,62.20
2018-07-12T15:21:27.443Z,61.60
2018-07-12T15:23:57.233Z,61.60
2018-07-12T15:26:26.401Z,61.50
2018-07-12T15:28:55.517Z,61.10
2018-07-12T15:31:25.040Z,61.10
2018-07-12T15:33:54.199Z,60.40
2018-07-12T15:36:23.459Z,59.30
2018-07-12T15:38:52.635Z,59.20
2018-07-12T15:41:21.920Z,58.60
2018-07-12T15:43:52.158Z,58.60
2018-07-12T15:48:50.209Z,58.30
2018-07-12T15:51:19.399Z,58.30
2018-07-12T15:53:48.598Z,57.90
2018-07-12T15:56:17.741Z,58.10
2018-07-12T15:58:46.932Z,57.90
2018-07-12T16:01:16.119Z,58.30
2018-07-12T16:03:45.309Z,58.00
2018-07-12T16:06:15.195Z,58.00
2018-07-12T16:08:44.495Z,57.40
2018-07-12T16:11:13.759Z,57.50
2018-07-12T16:13:44.086Z,57.40
2018-07-12T16:16:13.957Z,57.30
2018-07-12T16:18:43.154Z,57.80
2018-07-12T16:21:12.453Z,57.40
2018-07-12T16:23:42.330Z,57.40
2018-07-12T16:26:11.607Z,56.40
2018-07-12T16:28:40.954Z,56.30
2018-07-12T16:31:10.182Z,56.50
2018-07-12T16:33:39.371Z,57.20
2018-07-12T16:36:08.607Z,57.10
2018-07-12T16:38:37.765Z,56.30
2018-07-12T16:41:07.590Z,56.20
2018-07-12T16:46:05.540Z,56.30
2018-07-12T16:48:34.766Z,56.20
2018-07-12T16:51:03.943Z,56.40
2018-07-12T16:53:33.193Z,56.40
2018-07-12T16:56:02.389Z,55.90
2018-07-12T16:58:31.584Z,55.60
2018-07-12T17:01:00.842Z,55.60
2018-07-12T17:03:30.133Z,56.20
2018-07-12T17:05:59.304Z,55.90
2018-07-12T17:08:28.601Z,55.80
2018-07-12T17:10:57.803Z,56.00
2018-07-12T17:13:27.022Z,55.50
2018-07-12T17:15:56.287Z,55.70
2018-07-12T17:18:25.524Z,56.20
2018-07-12T17:20:54.740Z,56.20
2018-07-12T17:23:23.928Z,55.40
2018-07-12T17:25:53.129Z,55.80
2018-07-12T17:28:22.298Z,54.90
2018-07-12T17:30:51.443Z,54.90
2018-07-12T17:33:20.858Z,54.90
2018-07-12T17:35:50.018Z,54.80
2018-07-12T17:38:19.210Z,54.90
2018-07-12T17:40:48.396Z,55.00
2018-07-12T17:43:17.832Z,54.70
2018-07-12T17:45:47.744Z,54.50
2018-07-12T17:48:17.331Z,55.00
2018-07-12T17:50:47.617Z,54.10
2018-07-12T17:53:16.917Z,54.50
2018-07-12T17:55:46.161Z,54.90
2018-07-12T17:58:15.351Z,55.20
2018-07-12T18:00:44.486Z,55.70
2018-07-12T18:03:13.750Z,55.50
2018-07-12T18:05:42.874Z,55.60
2018-07-12T18:08:12.173Z,55.60
2018-07-12T18:10:41.656Z,55.60
2018-07-12T18:13:10.766Z,55.10
2018-07-12T18:15:39.962Z,55.10
2018-07-12T18:18:09.179Z,55.00
2018-07-12T18:20:38.378Z,55.60
2018-07-12T18:23:07.571Z,55.60
2018-07-12T18:25:38.651Z,55.70
2018-07-12T18:28:07.890Z,55.80
2018-07-12T18:30:37.041Z,55.80
2018-07-12T18:33:06.818Z,56.00
2018-07-12T18:35:36.169Z,56.10
2018-07-12T18:38:05.418Z,56.50
2018-07-12T18:43:04.373Z,56.50
2018-07-12T18:45:33.530Z,56.70
2018-07-12T18:48:02.755Z,56.90
2018-07-12T18:50:32.015Z,56.70
2018-07-12T18:53:01.318Z,57.00
2018-07-12T18:55:30.676Z,57.10
2018-07-12T18:58:01.135Z,57.30
2018-07-12T19:00:30.420Z,57.30
2018-07-12T19:02:59.762Z,57.60
2018-07-12T19:05:28.973Z,57.90
2018-07-12T19:07:58.209Z,58.10
2018-07-12T19:10:27.385Z,58.30
2018-07-12T19:12:56.591Z,58.40
2018-07-12T19:15:25.815Z,58.10
2018-07-12T19:17:54.938Z,58.40
2018-07-12T19:20:24.089Z,58.60
2018-07-12T19:25:23.858Z,59.00
2018-07-12T19:27:53.139Z,59.40
2018-07-12T19:30:24.174Z,59.60
2018-07-12T19:32:54.000Z,59.80
2018-07-12T19:35:23.436Z,60.10
2018-07-12T19:37:53.580Z,60.30
2018-07-12T19:40:23.858Z,60.70
2018-07-12T19:42:54.006Z,61.00
2018-07-12T19:45:23.281Z,62.00
2018-07-12T19:47:52.414Z,61.80
2018-07-12T19:50:21.598Z,62.00
2018-07-12T19:52:52.293Z,61.90
2018-07-12T19:55:21.474Z,62.10
2018-07-12T19:57:50.682Z,62.20
2018-07-12T20:00:20.841Z,62.40
2018-07-12T20:02:50.082Z,62.70
2018-07-12T20:05:19.305Z,63.00
2018-07-12T20:07:48.544Z,63.10
2018-07-12T20:10:17.841Z,63.40
2018-07-12T20:12:47.155Z,63.80
2018-07-12T20:15:16.426Z,64.20
2018-07-12T20:17:45.593Z,64.60
2018-07-12T20:20:14.765Z,65.30
2018-07-12T20:22:44.034Z,65.10
2018-07-12T20:25:13.276Z,65.50
2018-07-12T20:27:42.502Z,65.40
2018-07-12T20:30:11.752Z,65.50
2018-07-12T20:32:41.097Z,65.50
2018-07-12T20:35:10.349Z,65.40
2018-07-12T20:37:39.640Z,65.80
2018-07-12T20:40:08.825Z,66.20
2018-07-12T20:42:37.951Z,66.20
2018-07-12T20:45:07.140Z,66.30
2018-07-12T20:47:36.393Z,66.60
2018-07-12T20:50:05.540Z,66.60
2018-07-12T20:52:34.809Z,67.10
2018-07-12T20:55:03.976Z,68.20
2018-07-12T20:57:33.094Z,67.90
2018-07-12T21:00:02.282Z,68.60
2018-07-12T21:02:31.398Z,68.80
2018-07-12T21:05:00.561Z,68.60
2018-07-12T21:07:29.742Z,68.40
2018-07-12T21:09:58.895Z,68.40
2018-07-12T21:12:28.027Z,68.90
2018-07-12T21:14:57.209Z,69.10
2018-07-12T21:17:26.378Z,69.30
2018-07-12T21:19:56.430Z,69.70
2018-07-12T21:22:25.621Z,69.90
2018-07-12T21:24:54.780Z,70.00
2018-07-12T21:27:24.035Z,69.90
2018-07-12T21:29:53.110Z,69.70
2018-07-12T21:32:22.233Z,70.10
2018-07-12T21:34:51.437Z,70.50
2018-07-12T21:37:20.638Z,71.10
2018-07-12T21:39:49.808Z,71.40
2018-07-12T21:42:18.986Z,71.50
2018-07-12T21:44:48.151Z,71.50
2018-07-12T21:47:17.351Z,71.60
2018-07-12T21:49:46.481Z,71.60
2018-07-12T21:52:15.663Z,71.50
2018-07-12T21:54:44.838Z,71.60
2018-07-12T21:57:13.990Z,71.60
2018-07-12T21:59:43.152Z,71.50
2018-07-12T22:02:12.272Z,72.50
2018-07-12T22:04:41.377Z,72.20
2018-07-12T22:08:16.037Z,72.80
2018-07-12T22:10:46.218Z,72.80
2018-07-12T22:13:15.991Z,73.60
2018-07-12T22:15:45.181Z,73.00
2018-07-12T22:18:14.330Z,73.30
2018-07-12T22:20:43.543Z,73.40
2018-07-12T22:23:12.690Z,73.40
2018-07-12T22:25:41.914Z,73.40
2018-07-12T22:30:40.083Z,73.70
2018-07-12T22:33:09.186Z,73.90
2018-07-12T22:35:38.302Z,73.80
2018-07-12T22:38:08.169Z,73.90
2018-07-12T22:40:37.322Z,73.90
2018-07-12T22:43:06.480Z,74.20
2018-07-12T22:45:35.634Z,74.50
2018-07-12T22:48:04.899Z,74.90
2018-07-12T22:50:34.018Z,74.90
2018-07-12T22:53:03.204Z,75.00
2018-07-12T22:55:34.391Z,75.30
2018-07-12T22:58:03.561Z,75.40
2018-07-12T23:00:32.720Z,75.60
2018-07-12T23:03:01.853Z,75.70
2018-07-12T23:05:31.045Z,75.90
2018-07-12T23:08:00.201Z,76.10
2018-07-12T23:10:29.339Z,76.30
2018-07-12T23:12:58.474Z,76.60
2018-07-12T23:15:27.665Z,76.60
2018-07-12T23:17:56.844Z,76.60
2018-07-12T23:20:26.025Z,76.80
2018-07-12T23:22:55.160Z,77.10
2018-07-12T23:25:24.357Z,77.50
2018-07-12T23:27:55.814Z,77.70
2018-07-12T23:30:25.685Z,77.90
2018-07-12T23:32:55.673Z,77.70
2018-07-12T23:35:24.890Z,77.80
2018-07-12T23:37:54.097Z,78.00
2018-07-12T23:40:23.249Z,78.20
2018-07-12T23:42:52.450Z,78.30
2018-07-12T23:45:21.628Z,78.20
2018-07-12T23:47:50.729Z,78.20
2018-07-12T23:50:19.869Z,78.30
2018-07-12T23:52:49.019Z,78.50
2018-07-12T23:55:18.149Z,79.00
